首页
METAR-TAF:

METAR-TAF

机场 :

South Bend Regional Airport

南本德, 印第安纳州, 美国

纬度: 41-42-32N, 经度: 086-19-07W, 海拔: 244米

当前天气观测

该预报发布于28分钟前的21:08 UTC
风速5节,风向
温度 6°C
湿度 75%
气压 1010 hPa
能見度: 12.9公里
多云层高于1600英尺
阴天层高于3000英尺

METAR: KSBN 242108Z 08005KT 8SM BKN016 OVC030 06/02 A2983 RMK AO2 RAE01 P0000 T00560022

时间: 16:36 (21:36 UTC)

预报

该预报发布于4小时和10分钟前的17:26 UTC
预报有效从24日的 18点(UTC)到 25日的 18点(UTC)
风速4节,风向东转东南
能見度: 10公里
阴天层高于6000英尺
从 24日的 2000点(UTC)
风速6节,风向
能見度: 10公里
阴天层高于1500英尺
附近有阵雨
从 24日的 2200点(UTC)
风速8节,风向东转东北
能見度: 4.8公里
阴天层高于600英尺
小雨, 轻雾
从 25日的 1000点(UTC)
风速12节,风向东北
能見度: 8.0公里
阴天层高于800英尺
轻雾, 附近有阵雨

TAF: KSBN 241726Z 2418/2518 11004KT P6SM OVC060 FM242000 08006KT P6SM VCSH OVC015 FM242200 06008KT 3SM -RA BR OVC006 FM251000 04012KT 5SM BR VCSH OVC008

超过4000个机场的气象观测和天气预报(METAR&TAF报告)。

可查询的气象台以黄色和红色小点在地图上表示。

将鼠标移到小点上方,可查看气象台名称。

然后点击查看天气观测和预报。

如需切换地图:点击带黑十字的绿色按钮放大地图;点击带横线的绿色按钮缩小地图;或者点击绿色箭头查看邻近地区的地图。


METAR-TAF: